Time;durP1;ratioP1;P1;durP2;ratioP2;P2;SDS_P1;SDS_P2;PMS_P1;PMS_P2;Temp;Humidity;BMP_temperature;BMP_pressure;BME280_temperature;BME280_humidity;BME280_pressure;Samples;Min_cycle;Max_cycle;Signal;HPM_P1;HPM_P2
2022/09/14 00:03:37;;;;;;;29.70;16.60;;;;;;;15.00;100.00;99265.08;656898;1279;140511;-84
2022/09/14 00:18:41;;;;;;;29.80;19.00;;;;;;;14.89;100.00;99248.39;655593;1278;139435;-84
2022/09/14 00:33:46;;;;;;;29.10;19.10;;;;;;;14.73;100.00;99241.41;655996;1277;140324;-82
2022/09/14 00:48:51;;;;;;;47.10;29.60;;;;;;;14.60;100.00;99240.05;656212;1277;139737;-82
2022/09/14 01:03:54;;;;;;;39.40;24.50;;;;;;;14.66;100.00;99233.34;664606;1278;140560;-83
2022/09/14 01:19:03;;;;;;;39.80;22.70;;;;;;;14.76;100.00;99223.36;657456;1277;140776;-82
2022/09/14 01:34:13;;;;;;;40.80;24.10;;;;;;;14.69;100.00;99222.61;656484;1278;140127;-82
2022/09/14 01:49:37;;;;;;;38.10;22.10;;;;;;;14.64;100.00;99220.27;655473;1277;140769;-83
2022/09/14 02:04:49;;;;;;;40.70;22.70;;;;;;;14.59;100.00;99207.98;655721;1278;140864;-82
2022/09/14 02:19:56;;;;;;;32.50;20.00;;;;;;;14.45;100.00;99180.68;655782;1279;140022;-82
2022/09/14 02:35:13;;;;;;;33.70;21.00;;;;;;;14.36;100.00;99178.45;655821;1278;141385;-84
2022/09/14 02:50:23;;;;;;;47.30;26.40;;;;;;;14.30;100.00;99176.30;655605;1277;140345;-81
2022/09/14 03:05:26;;;;;;;46.50;26.00;;;;;;;14.39;100.00;99163.98;655722;1278;140317;-82
2022/09/14 03:20:31;;;;;;;40.80;22.80;;;;;;;14.46;100.00;99156.95;655474;1278;139488;-84
2022/09/14 03:35:35;;;;;;;44.70;21.80;;;;;;;14.41;100.00;99141.55;655360;1279;142835;-84
2022/09/14 03:50:38;;;;;;;37.80;20.50;;;;;;;14.34;100.00;99126.80;655305;1279;140158;-81
2022/09/14 04:05:41;;;;;;;80.60;39.70;;;;;;;14.26;100.00;99133.49;655451;1277;143225;-82
2022/09/14 04:20:44;;;;;;;35.20;21.00;;;;;;;14.28;100.00;99138.70;656779;1278;140839;-84
2022/09/14 04:35:57;;;;;;;36.50;20.20;;;;;;;14.36;100.00;99150.59;654954;1277;1521913;-82
2022/09/14 04:51:10;;;;;;;30.20;18.00;;;;;;;14.43;100.00;99142.23;655754;1279;140050;-83
2022/09/14 05:06:15;;;;;;;30.50;17.10;;;;;;;14.50;100.00;99142.17;656546;1278;139532;-83
2022/09/14 05:21:20;;;;;;;25.90;16.40;;;;;;;14.59;100.00;99156.27;662335;1279;139690;-84
2022/09/14 05:36:23;;;;;;;30.20;17.80;;;;;;;14.64;100.00;99158.66;659653;1277;139707;-83
2022/09/14 05:51:27;;;;;;;32.60;17.20;;;;;;;14.94;100.00;99156.23;658121;1280;141353;-83
2022/09/14 06:06:31;;;;;;;24.50;13.80;;;;;;;15.36;100.00;99152.69;658363;1277;140539;-83
2022/09/14 06:21:35;;;;;;;22.00;13.00;;;;;;;15.59;100.00;99150.75;660400;1277;141435;-84
2022/09/14 06:36:38;;;;;;;19.60;9.80;;;;;;;15.77;100.00;99163.68;660697;1277;140431;-84
2022/09/14 06:51:46;;;;;;;13.70;8.30;;;;;;;16.17;100.00;99178.71;660653;1278;139424;-83
2022/09/14 07:06:50;;;;;;;13.80;7.00;;;;;;;17.25;100.00;99182.21;667374;1278;139343;-84
2022/09/14 07:21:53;;;;;;;9.40;4.30;;;;;;;18.03;100.00;99184.32;660734;1277;139670;-84
2022/09/14 07:36:57;;;;;;;10.30;4.10;;;;;;;18.33;100.00;99188.01;660342;1278;140051;-84
2022/09/14 07:52:00;;;;;;;7.90;3.00;;;;;;;18.24;99.21;99188.92;659908;1278;139899;-83
2022/09/14 08:07:04;;;;;;;6.50;2.60;;;;;;;18.33;93.59;99182.34;659148;1277;138873;-82
2022/09/14 08:22:07;;;;;;;6.50;2.20;;;;;;;18.71;90.26;99191.58;660390;1278;139152;-83
2022/09/14 08:37:11;;;;;;;9.50;2.30;;;;;;;18.79;86.83;99189.17;658913;1278;139389;-82
2022/09/14 08:52:24;;;;;;;6.20;1.80;;;;;;;18.91;84.27;99185.03;660244;1279;140169;-83
2022/09/14 09:07:49;;;;;;;3.80;1.60;;;;;;;19.14;81.39;99181.62;658832;1280;138872;-82
2022/09/14 09:23:09;;;;;;;2.30;1.30;;;;;;;20.00;75.67;99163.50;658479;1280;139498;-82
2022/09/14 09:38:23;;;;;;;5.60;1.60;;;;;;;20.45;74.67;99164.63;660270;1277;138852;-82
2022/09/14 09:53:28;;;;;;;3.40;1.60;;;;;;;20.14;74.83;99162.52;661002;1277;138721;-83
2022/09/14 10:08:33;;;;;;;6.10;1.90;;;;;;;19.92;75.77;99171.91;659742;1277;138669;-83
2022/09/14 10:23:38;;;;;;;7.20;2.00;;;;;;;19.91;76.18;99173.60;661809;1277;138532;-83
2022/09/14 10:38:51;;;;;;;3.40;1.20;;;;;;;19.91;77.38;99169.10;661651;1277;139298;-83
2022/09/14 10:54:17;;;;;;;2.70;1.20;;;;;;;19.80;73.50;99178.80;658259;1277;139568;-82
2022/09/14 11:09:24;;;;;;;4.60;1.80;;;;;;;19.48;72.43;99192.84;657881;1277;140652;-83
2022/09/14 11:24:41;;;;;;;4.50;1.20;;;;;;;21.01;66.81;99181.38;658581;1277;138145;-83
2022/09/14 11:39:57;;;;;;;3.10;1.30;;;;;;;21.23;65.42;99176.69;660864;1278;139452;-83
2022/09/14 11:55:01;;;;;;;5.10;1.40;;;;;;;21.52;64.63;99176.30;658542;1278;139098;-83
2022/09/14 12:10:15;;;;;;;8.50;1.80;;;;;;;20.94;65.24;99174.47;659669;1278;139076;-83
2022/09/14 12:25:21;;;;;;;2.40;1.20;;;;;;;20.45;67.00;99179.50;659344;1278;139763;-83
2022/09/14 12:40:28;;;;;;;7.20;1.10;;;;;;;20.93;65.62;99173.17;660672;1277;139114;-84
2022/09/14 12:55:43;;;;;;;5.00;2.10;;;;;;;20.72;66.28;99166.75;659631;1277;138633;-83
2022/09/14 13:10:51;;;;;;;6.30;2.10;;;;;;;21.26;64.21;99168.12;659322;1277;139429;-84
2022/09/14 13:25:55;;;;;;;6.60;1.90;;;;;;;21.37;63.68;99164.95;660451;1278;138872;-82
2022/09/14 13:41:07;;;;;;;5.80;2.00;;;;;;;21.04;65.51;99156.91;660103;1277;138562;-83
2022/09/14 13:56:30;;;;;;;8.30;2.40;;;;;;;20.33;67.02;99158.15;659238;1277;139272;-81
2022/09/14 14:11:53;;;;;;;5.40;2.90;;;;;;;22.08;64.97;99143.91;659206;1280;138494;-83
2022/09/14 14:26:58;;;;;;;5.90;2.80;;;;;;;21.44;64.42;99130.80;659758;1280;138498;-82
2022/09/14 14:42:01;;;;;;;4.10;1.50;;;;;;;22.79;64.23;99127.61;658903;1279;138677;-83
2022/09/14 14:57:06;;;;;;;4.00;2.10;;;;;;;25.76;56.81;99111.57;658855;1278;139354;-79
2022/09/14 15:12:12;;;;;;;3.80;2.00;;;;;;;28.97;49.72;99108.34;660135;1280;139544;-81
2022/09/14 15:27:18;;;;;;;4.20;1.70;;;;;;;29.17;47.45;99094.27;659635;1277;142067;-84
2022/09/14 15:42:23;;;;;;;12.80;4.70;;;;;;;24.41;52.05;99083.62;656297;1278;140277;-82
2022/09/14 15:57:27;;;;;;;7.70;3.30;;;;;;;21.75;56.78;99080.73;656439;1280;141593;-81
2022/09/14 16:12:32;;;;;;;13.60;4.80;;;;;;;20.51;60.42;99064.91;657740;1280;139571;-81
2022/09/14 16:27:40;;;;;;;9.50;4.20;;;;;;;19.80;62.82;99062.02;657060;1280;138655;-82
2022/09/14 16:42:47;;;;;;;10.90;5.80;;;;;;;19.44;64.95;99060.79;655316;1280;2306672;-81
2022/09/14 16:57:50;;;;;;;14.20;7.40;;;;;;;19.18;66.82;99053.84;658873;1278;138801;-90
2022/09/14 17:12:56;;;;;;;9.50;4.10;;;;;;;18.89;68.18;99045.42;656738;1277;139221;-82
2022/09/14 17:28:05;;;;;;;35.00;17.10;;;;;;;18.62;70.12;99055.10;657408;1278;138204;-81
2022/09/14 17:43:10;;;;;;;21.40;12.30;;;;;;;18.30;72.03;99052.04;658350;1278;139255;-81
2022/09/14 17:58:14;;;;;;;25.10;14.40;;;;;;;18.02;73.02;99047.45;657996;1277;138468;-82
2022/09/14 18:13:22;;;;;;;13.90;6.00;;;;;;;17.90;74.26;99048.94;657689;1278;139448;-82
2022/09/14 18:28:29;;;;;;;9.80;5.10;;;;;;;17.78;75.22;99050.88;658867;1278;139495;-83
2022/09/14 18:43:34;;;;;;;12.30;6.60;;;;;;;17.72;76.93;99046.71;658889;1279;138836;-81
2022/09/14 18:58:41;;;;;;;19.50;9.90;;;;;;;17.58;78.45;99040.45;658874;1278;138772;-82
2022/09/14 19:14:00;;;;;;;23.00;12.90;;;;;;;17.45;80.01;99033.66;659476;1279;139712;-82
2022/09/14 19:29:06;;;;;;;21.40;11.50;;;;;;;17.30;80.98;99023.80;660551;1278;140341;-82
2022/09/14 19:44:11;;;;;;;45.20;20.60;;;;;;;17.04;82.69;99016.34;660874;1277;139727;-82
2022/09/14 19:59:15;;;;;;;17.20;8.70;;;;;;;16.71;83.46;99007.27;657882;1278;140520;-82
2022/09/14 20:14:22;;;;;;;13.50;5.90;;;;;;;16.52;84.40;98988.68;657431;1278;140256;-82
2022/09/14 20:29:29;;;;;;;11.90;6.10;;;;;;;16.35;85.54;98989.30;657728;1277;141046;-83
2022/09/14 20:44:32;;;;;;;10.30;5.80;;;;;;;16.19;86.93;98991.91;657042;1280;142221;-83
2022/09/14 20:59:36;;;;;;;18.60;7.00;;;;;;;16.02;88.70;98993.29;657297;1280;140397;-83
2022/09/14 21:14:41;;;;;;;19.10;9.90;;;;;;;16.10;90.35;98988.13;657788;1280;139390;-81
2022/09/14 21:29:44;;;;;;;345.50;132.30;;;;;;;16.08;91.32;98989.72;656902;1280;139079;-82
2022/09/14 21:44:47;;;;;;;28.30;14.80;;;;;;;16.00;92.38;98982.98;657831;1280;141142;-82
2022/09/14 21:59:50;;;;;;;28.20;14.00;;;;;;;15.90;93.42;98966.30;657876;1278;140285;-82
2022/09/14 22:14:53;;;;;;;19.90;10.00;;;;;;;15.72;94.46;98957.42;657074;1280;140680;-82
2022/09/14 22:29:57;;;;;;;22.00;12.80;;;;;;;15.66;95.20;98955.70;657561;1280;139619;-82
2022/09/14 22:45:00;;;;;;;20.10;10.70;;;;;;;15.61;96.32;98945.12;657577;1277;141570;-82
2022/09/14 23:00:08;;;;;;;21.80;11.90;;;;;;;15.53;97.43;98936.36;657017;1280;139797;-82
2022/09/14 23:15:11;;;;;;;19.50;9.90;;;;;;;15.47;98.37;98930.17;657198;1278;139495;-82
2022/09/14 23:30:14;;;;;;;16.20;8.90;;;;;;;15.56;98.96;98914.85;656928;1280;139218;-82
2022/09/14 23:45:17;;;;;;;19.30;11.20;;;;;;;15.47;99.72;98902.23;657590;1277;138938;-82
